Aberdaron, United Kingdom
Current Conditions -  °F | °C
As of 12:50 AM on Thursday 27 Nov 2014 (Local Time) from EGOV Reporting Station
Haze Haze  
Wind Chill: 41°   Ceiling: 4500
Heat Index: 45°   Visibility: 4mi
Dew Point: 43°   Wind: 6mph
Humidity: 93%   Direction: 100°E
Pressure: 29.71"   Gusts: NA
Location:  52.78°N, 4.73°W
Report Text: EGOV 270050Z AUTO 10005KT 6000 HZ OVC045/// 07/06 Q1006
Loading
Personal Weather Stations






























Interactive Weather Map New forecast layout! Learn more

10-Day Weather Forecast

Advertisements
Track Severe Weather on mobile